Forside
METAR-TAF:

METAR-TAF

Lufthavne :

Minneapolis, Minnesota, USA

Breddekreds: 44-52-59N, længdekreds: 093-13-44W, højde: 256 m

Aktuelle vejr

Denne rapport blev lavet for 54 minutter siden, kl. 10:53 UTC
Vind 5 kt fra sydøst
Temperatur -9°C
Fugtighed 85%
Tryk 1029 hPa
Sigt: 12.9 km
skyfri

METAR: KMSP 141053Z 13005KT 8SM CLR M09/M11 A3039 RMK AO2 SLP309 T10891106 $

Tid: 05:47 (11:47 UTC)

Vejrudsigter

Denne rapport blev lavet for 23 minutter siden, kl. 11:24 UTC
Foreløbig gælder fra 14 på 12 UTC til 15 på 18 UTC
Vind 8 kt fra sydøst
Sigt: 10 km
skyfri
Fra 14 på 1800 UTC
Vind 12 kt fra sydsydøst med vindstød på up til 18 kt
Sigt: 10 km
Spredte skyer i en højde af 25000 ft

TAF: KMSP 141124Z 1412/1518 13008KT P6SM SKC FM141800 16012G18KT P6SM SCT250

Vejrobservationer og prognoser fra mere end 4000 lufthavne (METAR og TAF).

De gule og røde prikker repræsenterer de meteorologiske stationer.

Flyt musen over at se navnet på stationen.

Så klik over at se vejr observationer og prognoser.

At skifte det kort: Klik på de grønne knapper med et sort kors for at zoome ind; på den grønne knap med en bindestreg for at zoome ud; eller på de grønne pile for tilstødende kort.


METAR-TAF: